createdAt,value
2018-09-10T00:02:11.055Z,2.40
2018-09-10T00:04:23.298Z,2.40
2018-09-10T00:06:35.512Z,2.47
2018-09-10T00:08:49.112Z,2.30
2018-09-10T00:11:01.344Z,2.50
2018-09-10T00:13:13.502Z,2.30
2018-09-10T00:15:25.717Z,2.20
2018-09-10T00:17:37.898Z,2.30
2018-09-10T00:19:50.160Z,2.53
2018-09-10T00:22:02.325Z,2.40
2018-09-10T00:24:14.532Z,2.13
2018-09-10T00:26:26.741Z,2.33
2018-09-10T00:28:38.934Z,2.30
2018-09-10T00:30:51.219Z,2.60
2018-09-10T00:33:03.418Z,2.30
2018-09-10T00:35:15.611Z,2.40
2018-09-10T00:37:28.064Z,2.00
2018-09-10T00:39:40.269Z,2.37
2018-09-10T00:41:52.487Z,2.67
2018-09-10T00:44:04.672Z,2.37
2018-09-10T00:46:16.890Z,2.40
2018-09-10T00:48:29.096Z,2.33
2018-09-10T00:50:41.295Z,2.30
2018-09-10T00:52:53.505Z,2.10
2018-09-10T00:55:05.730Z,2.47
2018-09-10T00:57:17.967Z,2.43
2018-09-10T00:59:30.161Z,3.00
2018-09-10T01:01:42.374Z,2.53
2018-09-10T01:03:54.556Z,2.43
2018-09-10T01:06:06.775Z,2.40
2018-09-10T01:08:19.022Z,2.60
2018-09-10T01:10:31.246Z,2.80
2018-09-10T01:12:43.516Z,2.30
2018-09-10T01:14:55.719Z,2.43
2018-09-10T01:17:07.903Z,2.57
2018-09-10T01:19:20.075Z,2.57
2018-09-10T01:21:32.294Z,2.30
2018-09-10T01:23:44.468Z,2.83
2018-09-10T01:25:56.707Z,2.17
2018-09-10T01:28:08.930Z,2.20
2018-09-10T01:30:21.092Z,2.30
2018-09-10T01:32:33.324Z,2.20
2018-09-10T01:34:51.127Z,2.57
2018-09-10T01:37:03.337Z,2.40
2018-09-10T01:39:15.557Z,2.47
2018-09-10T01:41:27.742Z,2.67
2018-09-10T01:43:39.956Z,2.30
2018-09-10T01:45:52.134Z,2.50
2018-09-10T01:48:04.382Z,2.40
2018-09-10T01:50:16.535Z,2.30
2018-09-10T01:52:28.943Z,2.27
2018-09-10T01:54:41.149Z,2.40
2018-09-10T01:56:53.326Z,2.30
2018-09-10T01:59:05.540Z,2.50
2018-09-10T02:01:17.694Z,2.53
2018-09-10T02:03:29.898Z,2.80
2018-09-10T02:05:42.197Z,2.10
2018-09-10T02:07:54.378Z,2.50
2018-09-10T02:10:06.603Z,2.33
2018-09-10T02:12:25.639Z,2.23
2018-09-10T02:14:37.838Z,2.10
2018-09-10T02:16:50.038Z,2.50
2018-09-10T02:19:02.269Z,2.33
2018-09-10T02:21:15.000Z,2.37
2018-09-10T02:23:27.181Z,2.63
2018-09-10T02:25:39.594Z,2.50
2018-09-10T02:27:51.772Z,2.60
2018-09-10T02:30:04.341Z,2.63
2018-09-10T02:32:16.533Z,2.90
2018-09-10T02:34:28.799Z,2.60
2018-09-10T02:36:40.978Z,2.60
2018-09-10T02:38:53.206Z,2.53
2018-09-10T02:41:05.534Z,2.50
2018-09-10T02:43:17.712Z,2.70
2018-09-10T02:45:29.914Z,2.80
2018-09-10T02:47:42.082Z,2.50
2018-09-10T02:49:54.462Z,2.43
2018-09-10T02:52:06.644Z,2.53
2018-09-10T02:54:18.804Z,3.10
2018-09-10T02:56:31.047Z,3.17
2018-09-10T02:58:43.241Z,2.70
2018-09-10T03:00:55.549Z,2.60
2018-09-10T03:03:07.729Z,2.80
2018-09-10T03:05:19.907Z,2.70
2018-09-10T03:07:32.090Z,2.83
2018-09-10T03:09:44.312Z,2.73
2018-09-10T03:11:56.536Z,2.90
2018-09-10T03:14:09.043Z,3.30
2018-09-10T03:16:21.225Z,2.57
2018-09-10T03:18:33.391Z,2.73
2018-09-10T03:20:45.570Z,2.47
2018-09-10T03:22:57.789Z,2.10
2018-09-10T03:25:09.951Z,2.70
2018-09-10T03:27:22.135Z,2.50
2018-09-10T03:29:34.307Z,2.67
2018-09-10T03:31:46.523Z,3.00
2018-09-10T03:33:58.679Z,2.93
2018-09-10T03:36:10.891Z,3.07
2018-09-10T03:38:23.062Z,3.07
2018-09-10T03:40:35.264Z,2.93
2018-09-10T03:42:47.513Z,3.10
2018-09-10T03:44:59.683Z,2.67
2018-09-10T03:47:11.934Z,2.63
2018-09-10T03:49:24.062Z,2.97
2018-09-10T03:51:36.225Z,2.70
2018-09-10T03:53:48.466Z,2.73
2018-09-10T03:56:00.634Z,3.07
2018-09-10T03:58:12.852Z,2.90
2018-09-10T04:00:25.083Z,3.20
2018-09-10T04:02:37.249Z,3.30
2018-09-10T04:04:49.430Z,3.30
2018-09-10T04:07:01.755Z,3.70
2018-09-10T04:09:13.944Z,3.30
2018-09-10T04:11:26.129Z,3.53
2018-09-10T04:13:38.358Z,3.63
2018-09-10T04:15:50.691Z,3.17
2018-09-10T04:18:02.936Z,3.37
2018-09-10T04:20:15.142Z,2.83
2018-09-10T04:22:27.307Z,3.60
2018-09-10T04:24:39.487Z,3.20
2018-09-10T04:26:51.762Z,3.30
2018-09-10T04:29:03.967Z,3.60
2018-09-10T04:31:16.180Z,3.20
2018-09-10T04:33:28.387Z,3.17
2018-09-10T04:35:40.569Z,2.60
2018-09-10T04:37:52.755Z,3.10
2018-09-10T04:40:05.311Z,3.30
2018-09-10T04:42:17.532Z,3.50
2018-09-10T04:44:29.688Z,3.47
2018-09-10T04:46:41.893Z,3.37
2018-09-10T04:48:54.139Z,3.20
2018-09-10T04:51:06.310Z,4.20
2018-09-10T04:53:18.512Z,3.53
2018-09-10T04:55:30.751Z,3.33
2018-09-10T04:57:42.989Z,3.60
2018-09-10T04:59:55.233Z,3.07
2018-09-10T05:02:07.404Z,3.10
2018-09-10T05:04:19.625Z,3.40
2018-09-10T05:06:31.848Z,2.43
2018-09-10T05:08:44.050Z,3.43
2018-09-10T05:10:56.279Z,3.70
2018-09-10T05:13:08.528Z,3.93
2018-09-10T05:15:21.194Z,3.67
2018-09-10T05:17:33.366Z,3.90
2018-09-10T05:19:45.543Z,3.90
2018-09-10T05:21:57.814Z,3.97
2018-09-10T05:24:09.994Z,3.77
2018-09-10T05:26:22.182Z,2.87
2018-09-10T05:28:34.405Z,2.83
2018-09-10T05:30:46.621Z,3.20
2018-09-10T05:32:58.819Z,3.37
2018-09-10T05:35:10.986Z,3.83
2018-09-10T05:37:23.238Z,3.53
2018-09-10T05:39:35.447Z,3.50
2018-09-10T05:41:47.751Z,2.77
2018-09-10T05:43:59.884Z,3.70
2018-09-10T05:46:12.095Z,4.10
2018-09-10T05:48:24.343Z,3.63
2018-09-10T05:50:36.562Z,3.63
2018-09-10T05:52:48.763Z,3.97
2018-09-10T05:55:00.949Z,3.73
2018-09-10T05:57:13.164Z,4.00
2018-09-10T05:59:25.363Z,3.37
2018-09-10T06:01:37.602Z,3.43
2018-09-10T06:03:49.843Z,3.80
2018-09-10T06:06:02.071Z,3.33
2018-09-10T06:08:14.314Z,3.87
2018-09-10T06:10:26.531Z,3.87
2018-09-10T06:12:38.768Z,3.57
2018-09-10T06:14:50.958Z,3.47
2018-09-10T06:17:03.219Z,3.70
2018-09-10T06:19:15.400Z,3.70
2018-09-10T06:21:27.612Z,3.40
2018-09-10T06:23:39.870Z,3.30
2018-09-10T06:25:52.095Z,3.83
2018-09-10T06:28:04.291Z,3.20
2018-09-10T06:30:16.491Z,3.50
2018-09-10T06:32:28.686Z,3.53
2018-09-10T06:34:40.891Z,3.00
2018-09-10T06:36:53.073Z,2.90
2018-09-10T06:39:07.736Z,3.40
2018-09-10T06:41:19.946Z,3.20
2018-09-10T06:43:32.148Z,2.97
2018-09-10T06:45:44.365Z,3.07
2018-09-10T06:47:56.564Z,3.30
2018-09-10T06:50:08.811Z,2.80
2018-09-10T06:52:21.033Z,3.37
2018-09-10T06:54:33.258Z,2.80
2018-09-10T06:56:45.432Z,3.10
2018-09-10T06:58:57.593Z,2.70
2018-09-10T07:01:09.810Z,3.20
2018-09-10T07:03:22.066Z,3.10
2018-09-10T07:05:34.310Z,3.10
2018-09-10T07:07:46.542Z,3.00
2018-09-10T07:09:58.780Z,2.90
2018-09-10T07:12:10.991Z,3.03
2018-09-10T07:14:23.203Z,3.07
2018-09-10T07:16:35.457Z,3.07
2018-09-10T07:18:47.778Z,3.33
2018-09-10T07:20:59.948Z,3.23
2018-09-10T07:23:12.190Z,2.80
2018-09-10T07:25:24.444Z,2.80
2018-09-10T07:27:36.617Z,3.27
2018-09-10T07:29:48.810Z,2.90
2018-09-10T07:32:01.015Z,2.90
2018-09-10T07:34:13.222Z,2.70
2018-09-10T07:36:25.431Z,3.10
2018-09-10T07:38:37.670Z,2.90
2018-09-10T07:40:49.982Z,3.10
2018-09-10T07:43:02.175Z,2.50
2018-09-10T07:45:14.344Z,2.43
2018-09-10T07:47:26.643Z,2.70
2018-09-10T07:49:38.870Z,2.67
2018-09-10T07:51:51.095Z,2.70
2018-09-10T07:54:03.336Z,2.80
2018-09-10T07:56:15.559Z,2.70
2018-09-10T07:58:27.808Z,2.50
2018-09-10T08:00:39.961Z,2.50
2018-09-10T08:02:52.247Z,2.30
2018-09-10T08:05:04.540Z,3.10
2018-09-10T08:07:16.726Z,2.80
2018-09-10T08:09:29.017Z,2.67
2018-09-10T08:11:41.148Z,2.70
2018-09-10T08:13:53.343Z,2.53
2018-09-10T08:16:05.571Z,2.77
2018-09-10T08:18:17.808Z,2.70
2018-09-10T08:20:30.075Z,2.97
2018-09-10T08:22:42.285Z,2.83
2018-09-10T08:24:54.507Z,3.00
2018-09-10T08:27:06.767Z,2.53
2018-09-10T08:29:19.049Z,2.77
2018-09-10T08:31:31.217Z,2.90
2018-09-10T08:33:43.464Z,3.40
2018-09-10T08:35:55.652Z,3.10
2018-09-10T08:38:08.392Z,2.93
2018-09-10T08:40:20.650Z,3.10
2018-09-10T08:42:32.859Z,2.80
2018-09-10T08:44:45.131Z,3.07
2018-09-10T08:46:57.537Z,2.87
2018-09-10T08:49:09.806Z,2.57
2018-09-10T08:51:22.040Z,2.67
2018-09-10T08:53:34.276Z,2.70
2018-09-10T08:55:46.668Z,2.60
2018-09-10T08:57:58.759Z,2.50
2018-09-10T09:00:11.045Z,2.13
2018-09-10T09:02:23.283Z,2.90
2018-09-10T09:04:35.498Z,2.80
2018-09-10T09:06:47.711Z,2.60
2018-09-10T09:08:59.931Z,3.03
2018-09-10T09:11:12.164Z,2.47
2018-09-10T09:13:24.434Z,2.33
2018-09-10T09:15:36.647Z,2.30
2018-09-10T09:17:48.869Z,2.70
2018-09-10T09:20:01.097Z,2.43
2018-09-10T09:22:13.347Z,2.40
2018-09-10T09:24:25.571Z,2.30
2018-09-10T09:26:37.811Z,2.40
2018-09-10T09:28:50.110Z,2.50
2018-09-10T09:31:02.344Z,2.33
2018-09-10T09:33:14.530Z,2.63
2018-09-10T09:35:32.348Z,2.40
2018-09-10T09:37:50.296Z,2.40
2018-09-10T09:40:08.347Z,2.40
2018-09-10T09:42:26.214Z,2.50
2018-09-10T09:44:44.017Z,1.97
2018-09-10T09:46:56.295Z,2.27
2018-09-10T09:49:08.495Z,2.70
2018-09-10T09:51:20.734Z,2.33
2018-09-10T09:53:33.196Z,2.47
2018-09-10T09:55:45.414Z,1.90
2018-09-10T09:57:57.654Z,1.70
2018-09-10T10:00:19.463Z,2.23
2018-09-10T10:02:37.499Z,1.93
2018-09-10T10:04:49.706Z,2.07
2018-09-10T10:07:01.943Z,1.80
2018-09-10T10:09:14.162Z,2.20
2018-09-10T10:11:26.390Z,1.93
2018-09-10T10:13:38.601Z,1.93
2018-09-10T10:15:50.997Z,1.60
2018-09-10T10:18:03.457Z,1.67
2018-09-10T10:20:15.643Z,1.67
2018-09-10T10:22:27.838Z,2.10
2018-09-10T10:24:40.037Z,1.60
2018-09-10T10:26:52.319Z,1.30
2018-09-10T10:29:04.630Z,1.10
2018-09-10T10:31:16.883Z,1.00
2018-09-10T10:33:29.125Z,1.00
2018-09-10T10:35:41.367Z,1.13
2018-09-10T10:37:53.615Z,1.33
2018-09-10T10:40:05.852Z,1.00
2018-09-10T10:42:18.105Z,1.20
2018-09-10T10:44:30.322Z,1.23
2018-09-10T10:46:42.614Z,1.00
2018-09-10T10:48:54.851Z,1.10
2018-09-10T10:51:07.053Z,1.57
2018-09-10T10:53:19.368Z,1.40
2018-09-10T10:55:31.563Z,1.50
2018-09-10T10:57:43.755Z,1.90
2018-09-10T10:59:56.120Z,1.20
2018-09-10T11:02:08.359Z,1.50
2018-09-10T11:04:20.699Z,1.40
2018-09-10T11:06:32.855Z,1.40
2018-09-10T11:08:45.083Z,1.13
2018-09-10T11:10:57.270Z,1.20
2018-09-10T11:13:09.451Z,1.60
2018-09-10T11:15:21.684Z,1.40
2018-09-10T11:17:33.904Z,1.47
2018-09-10T11:19:46.131Z,1.30
2018-09-10T11:21:58.339Z,1.17
2018-09-10T11:24:10.590Z,1.30
2018-09-10T11:26:22.823Z,1.60
2018-09-10T11:28:35.042Z,1.30
2018-09-10T11:30:47.283Z,1.57
2018-09-10T11:32:59.595Z,1.00
2018-09-10T11:35:11.848Z,1.17
2018-09-10T11:37:24.084Z,1.20
2018-09-10T11:39:36.377Z,1.30
2018-09-10T11:41:49.467Z,1.20
2018-09-10T11:44:01.687Z,1.40
2018-09-10T11:46:13.899Z,1.30
2018-09-10T11:48:26.155Z,1.27
2018-09-10T11:50:38.386Z,1.40
2018-09-10T11:52:50.674Z,1.80
2018-09-10T11:55:02.890Z,1.65
2018-09-10T11:57:15.117Z,1.40
2018-09-10T11:59:27.383Z,1.35
2018-09-10T12:01:39.621Z,1.72
2018-09-10T12:03:51.790Z,1.57
2018-09-10T12:06:04.071Z,2.10
2018-09-10T12:08:16.307Z,1.40
2018-09-10T12:10:28.626Z,1.50
2018-09-10T12:12:40.924Z,1.90
2018-09-10T12:14:53.244Z,2.00
2018-09-10T12:17:05.481Z,1.95
2018-09-10T12:19:17.801Z,2.10
2018-09-10T12:21:30.180Z,2.07
2018-09-10T12:23:42.330Z,1.93
2018-09-10T12:25:54.582Z,1.90
2018-09-10T12:28:06.846Z,2.30
2018-09-10T12:30:19.059Z,2.20
2018-09-10T12:32:31.384Z,2.10
2018-09-10T12:34:43.619Z,2.08
2018-09-10T12:36:56.187Z,2.00
2018-09-10T12:39:09.492Z,2.25
2018-09-10T12:41:21.796Z,2.30
2018-09-10T12:43:34.066Z,2.50
2018-09-10T12:45:46.325Z,2.10
2018-09-10T12:47:58.576Z,1.83
2018-09-10T12:50:10.867Z,2.43
2018-09-10T12:52:23.113Z,2.43
2018-09-10T12:54:35.334Z,2.00
2018-09-10T12:56:47.560Z,2.50
2018-09-10T12:58:59.800Z,1.87
2018-09-10T13:01:12.042Z,1.77
2018-09-10T13:03:24.307Z,2.03
2018-09-10T13:05:36.560Z,2.50
2018-09-10T13:07:48.876Z,2.10
2018-09-10T13:10:01.103Z,2.20
2018-09-10T13:12:13.355Z,2.03
2018-09-10T13:14:25.647Z,2.20
2018-09-10T13:16:37.839Z,2.00
2018-09-10T13:18:50.099Z,1.90
2018-09-10T13:21:02.332Z,1.93
2018-09-10T13:23:14.575Z,2.00
2018-09-10T13:25:26.787Z,1.98
2018-09-10T13:27:39.048Z,2.40
2018-09-10T13:29:51.357Z,2.02
2018-09-10T13:32:03.535Z,2.03
2018-09-10T13:34:15.772Z,2.65
2018-09-10T13:36:28.059Z,2.17
2018-09-10T13:38:40.311Z,2.20
2018-09-10T13:40:52.514Z,2.10
2018-09-10T13:43:04.819Z,2.30
2018-09-10T13:45:17.027Z,2.00
2018-09-10T13:47:29.227Z,2.20
2018-09-10T13:49:41.539Z,2.30
2018-09-10T13:51:53.815Z,1.90
2018-09-10T13:54:06.199Z,2.23
2018-09-10T13:56:18.381Z,1.97
2018-09-10T13:58:30.607Z,2.00
2018-09-10T14:00:42.887Z,2.00
2018-09-10T14:02:55.144Z,1.83
2018-09-10T14:05:07.399Z,1.97
2018-09-10T14:07:19.631Z,1.83
2018-09-10T14:09:31.863Z,1.63
2018-09-10T14:11:44.093Z,2.10
2018-09-10T14:13:56.334Z,1.95
2018-09-10T14:16:08.673Z,1.80
2018-09-10T14:18:20.964Z,1.90
2018-09-10T14:20:33.169Z,1.95
2018-09-10T14:22:45.377Z,1.70
2018-09-10T14:24:57.689Z,2.00
2018-09-10T14:27:09.921Z,2.10
2018-09-10T14:29:22.205Z,1.93
2018-09-10T14:31:34.567Z,2.30
2018-09-10T14:33:47.008Z,1.80
2018-09-10T14:35:59.819Z,1.90
2018-09-10T14:38:12.045Z,1.50
2018-09-10T14:40:24.385Z,1.77
2018-09-10T14:42:36.591Z,1.77
2018-09-10T14:44:48.819Z,1.82
2018-09-10T14:47:01.059Z,2.13
2018-09-10T14:49:13.270Z,1.80
2018-09-10T14:51:25.563Z,1.90
2018-09-10T14:53:37.779Z,2.03
2018-09-10T14:55:50.070Z,1.90
2018-09-10T14:58:02.340Z,2.37
2018-09-10T15:00:20.107Z,2.10
2018-09-10T15:02:32.376Z,3.13
2018-09-10T15:04:44.630Z,2.40
2018-09-10T15:06:56.949Z,2.10
2018-09-10T15:09:09.467Z,2.07
2018-09-10T15:11:21.709Z,2.37
2018-09-10T15:13:33.881Z,2.50
2018-09-10T15:15:46.306Z,2.53
2018-09-10T15:17:58.609Z,2.00
2018-09-10T15:20:11.366Z,2.23
2018-09-10T15:22:23.641Z,2.00
2018-09-10T15:24:35.946Z,2.30
2018-09-10T15:26:48.214Z,1.70
2018-09-10T15:29:00.475Z,2.13
2018-09-10T15:31:12.740Z,2.10
2018-09-10T15:33:25.016Z,2.10
2018-09-10T15:35:37.235Z,1.97
2018-09-10T15:37:49.478Z,1.90
2018-09-10T15:40:01.687Z,2.22
2018-09-10T15:42:13.995Z,2.13
2018-09-10T15:44:26.247Z,2.20
2018-09-10T15:46:38.512Z,2.07
2018-09-10T15:48:50.775Z,2.10
2018-09-10T15:51:03.064Z,2.03
2018-09-10T15:53:15.288Z,2.70
2018-09-10T15:55:27.545Z,2.20
2018-09-10T15:57:39.768Z,1.80
2018-09-10T15:59:52.026Z,2.40
2018-09-10T16:02:04.266Z,2.23
2018-09-10T16:04:16.572Z,2.30
2018-09-10T16:06:28.918Z,2.07
2018-09-10T16:08:41.164Z,2.33
2018-09-10T16:10:53.407Z,1.90
2018-09-10T16:13:05.703Z,2.53
2018-09-10T16:15:18.006Z,2.50
2018-09-10T16:17:30.242Z,2.27
2018-09-10T16:19:42.497Z,2.00
2018-09-10T16:21:54.730Z,2.27
2018-09-10T16:24:07.010Z,1.80
2018-09-10T16:26:19.327Z,1.60
2018-09-10T16:28:31.586Z,1.70
2018-09-10T16:30:43.832Z,1.30
2018-09-10T16:32:56.049Z,2.00
2018-09-10T16:35:08.300Z,1.60
2018-09-10T16:37:20.532Z,1.70
2018-09-10T16:39:32.801Z,2.00
2018-09-10T16:41:45.095Z,1.70
2018-09-10T16:43:57.423Z,1.53
2018-09-10T16:46:09.734Z,2.00
2018-09-10T16:48:22.074Z,1.80
2018-09-10T16:50:34.302Z,1.60
2018-09-10T16:52:46.562Z,2.00
2018-09-10T16:54:58.832Z,1.60
2018-09-10T16:57:11.106Z,1.97
2018-09-10T16:59:23.286Z,1.83
2018-09-10T17:01:35.539Z,2.20
2018-09-10T17:03:47.883Z,1.93
2018-09-10T17:06:00.152Z,1.83
2018-09-10T17:08:12.438Z,1.93
2018-09-10T17:10:24.665Z,1.43
2018-09-10T17:12:36.925Z,2.10
2018-09-10T17:14:49.119Z,3.50
2018-09-10T17:17:01.294Z,2.10
2018-09-10T17:19:13.534Z,4.93
2018-09-10T17:21:25.790Z,3.00
2018-09-10T17:23:37.972Z,1.80
2018-09-10T17:25:52.034Z,2.10
2018-09-10T17:28:04.306Z,2.20
2018-09-10T17:30:16.586Z,2.17
2018-09-10T17:32:28.780Z,2.10
2018-09-10T17:34:41.066Z,2.30
2018-09-10T17:36:53.323Z,2.13
2018-09-10T17:39:06.730Z,2.40
2018-09-10T17:41:19.037Z,3.13
2018-09-10T17:43:31.274Z,2.30
2018-09-10T17:45:43.481Z,1.90
2018-09-10T17:47:55.808Z,2.00
2018-09-10T17:50:08.074Z,2.00
2018-09-10T17:52:20.307Z,2.07
2018-09-10T17:54:32.627Z,2.23
2018-09-10T17:56:44.910Z,2.30
2018-09-10T17:58:57.224Z,1.83
2018-09-10T18:01:09.521Z,1.80
2018-09-10T18:03:21.739Z,2.17
2018-09-10T18:05:34.066Z,2.20
2018-09-10T18:07:46.339Z,2.47
2018-09-10T18:09:58.555Z,2.17
2018-09-10T18:12:10.821Z,2.20
2018-09-10T18:14:23.091Z,2.07
2018-09-10T18:16:35.333Z,1.83
2018-09-10T18:18:47.615Z,2.20
2018-09-10T18:20:59.873Z,4.20
2018-09-10T18:23:12.138Z,3.47
2018-09-10T18:25:24.380Z,3.03
2018-09-10T18:27:36.603Z,2.37
2018-09-10T18:29:48.875Z,2.10
2018-09-10T18:32:01.115Z,2.40
2018-09-10T18:34:13.371Z,2.13
2018-09-10T18:36:25.635Z,2.00
2018-09-10T18:38:37.897Z,2.00
2018-09-10T18:40:50.128Z,2.63
2018-09-10T18:43:02.363Z,2.70
2018-09-10T18:45:14.371Z,2.17
2018-09-10T18:47:26.609Z,1.67
2018-09-10T18:49:38.867Z,1.97
2018-09-10T18:51:51.112Z,1.60
2018-09-10T18:54:03.323Z,1.70
2018-09-10T18:56:15.622Z,2.00
2018-09-10T18:58:27.901Z,1.87
2018-09-10T19:00:40.188Z,2.17
2018-09-10T19:02:52.427Z,1.90
2018-09-10T19:05:04.751Z,2.20
2018-09-10T19:07:17.044Z,2.13
2018-09-10T19:09:29.300Z,1.83
2018-09-10T19:11:41.597Z,2.03
2018-09-10T19:13:53.942Z,1.80
2018-09-10T19:16:06.258Z,2.77
2018-09-10T19:18:18.622Z,3.90
2018-09-10T19:20:30.894Z,2.10
2018-09-10T19:22:43.185Z,1.67
2018-09-10T19:24:55.471Z,1.80
2018-09-10T19:27:07.729Z,2.23
2018-09-10T19:29:19.998Z,2.07
2018-09-10T19:31:32.256Z,1.83
2018-09-10T19:33:44.578Z,1.90
2018-09-10T19:35:56.870Z,1.67
2018-09-10T19:38:09.203Z,2.13
2018-09-10T19:40:21.496Z,1.90
2018-09-10T19:42:33.760Z,2.07
2018-09-10T19:44:46.037Z,2.07
2018-09-10T19:46:58.292Z,1.73
2018-09-10T19:49:10.532Z,2.00
2018-09-10T19:51:22.801Z,2.00
2018-09-10T19:53:35.042Z,2.40
2018-09-10T19:55:47.311Z,1.90
2018-09-10T19:57:59.531Z,2.33
2018-09-10T20:00:11.894Z,2.20
2018-09-10T20:02:24.103Z,2.30
2018-09-10T20:04:36.339Z,2.30
2018-09-10T20:06:48.644Z,2.23
2018-09-10T20:09:00.882Z,1.90
2018-09-10T20:11:13.136Z,2.10
2018-09-10T20:13:25.392Z,1.90
2018-09-10T20:15:37.640Z,1.90
2018-09-10T20:17:50.184Z,2.10
2018-09-10T20:20:02.646Z,2.00
2018-09-10T20:22:16.403Z,2.20
2018-09-10T20:24:28.708Z,2.10
2018-09-10T20:26:40.965Z,2.57
2018-09-10T20:28:53.169Z,2.20
2018-09-10T20:31:05.515Z,2.50
2018-09-10T20:33:17.760Z,2.37
2018-09-10T20:35:30.059Z,2.63
2018-09-10T20:37:42.324Z,2.77
2018-09-10T20:39:54.547Z,2.60
2018-09-10T20:42:06.816Z,2.90
2018-09-10T20:44:19.018Z,2.93
2018-09-10T20:46:31.248Z,2.53
2018-09-10T20:48:43.439Z,2.60
2018-09-10T20:50:55.731Z,2.80
2018-09-10T20:53:07.958Z,2.70
2018-09-10T20:55:20.239Z,2.73
2018-09-10T20:57:32.447Z,2.60
2018-09-10T20:59:44.671Z,2.50
2018-09-10T21:01:56.894Z,2.50
2018-09-10T21:04:09.151Z,2.87
2018-09-10T21:06:21.459Z,3.13
2018-09-10T21:08:33.676Z,2.40
2018-09-10T21:10:45.966Z,2.67
2018-09-10T21:12:58.203Z,2.43
2018-09-10T21:15:10.445Z,2.80
2018-09-10T21:17:22.656Z,2.77
2018-09-10T21:19:34.870Z,2.80
2018-09-10T21:21:47.118Z,2.80
2018-09-10T21:23:59.322Z,2.90
2018-09-10T21:26:11.546Z,3.50
2018-09-10T21:28:23.850Z,3.77
2018-09-10T21:30:36.055Z,3.80
2018-09-10T21:32:48.307Z,3.37
2018-09-10T21:35:00.503Z,3.47
2018-09-10T21:37:12.730Z,3.47
2018-09-10T21:39:24.962Z,3.23
2018-09-10T21:41:37.475Z,2.67
2018-09-10T21:43:49.682Z,2.70
2018-09-10T21:46:02.068Z,2.23
2018-09-10T21:48:14.351Z,2.73
2018-09-10T21:50:26.585Z,2.80
2018-09-10T21:52:38.828Z,2.47
2018-09-10T21:54:51.106Z,2.70
2018-09-10T21:57:03.307Z,2.87
2018-09-10T21:59:15.559Z,2.40
2018-09-10T22:01:27.794Z,2.30
2018-09-10T22:03:40.004Z,2.43
2018-09-10T22:05:53.707Z,3.00
2018-09-10T22:08:05.962Z,2.67
2018-09-10T22:10:18.185Z,3.17
2018-09-10T22:12:30.362Z,2.70
2018-09-10T22:14:42.556Z,2.97
2018-09-10T22:16:54.799Z,2.83
2018-09-10T22:19:07.060Z,2.90
2018-09-10T22:21:19.270Z,2.63
2018-09-10T22:23:31.461Z,3.10
2018-09-10T22:25:43.653Z,2.50
2018-09-10T22:27:55.855Z,3.13
2018-09-10T22:30:08.077Z,3.17
2018-09-10T22:32:20.310Z,3.13
2018-09-10T22:34:32.818Z,2.80
2018-09-10T22:36:45.018Z,2.93
2018-09-10T22:38:57.286Z,3.20
2018-09-10T22:41:09.477Z,2.70
2018-09-10T22:43:21.675Z,2.57
2018-09-10T22:45:33.883Z,2.57
2018-09-10T22:47:46.058Z,2.70
2018-09-10T22:49:58.243Z,2.57
2018-09-10T22:52:10.399Z,3.10
2018-09-10T22:54:22.579Z,3.00
2018-09-10T22:56:34.832Z,3.10
2018-09-10T22:58:47.001Z,2.50
2018-09-10T23:00:59.194Z,3.10
2018-09-10T23:03:11.391Z,2.67
2018-09-10T23:05:23.617Z,2.80
2018-09-10T23:07:35.812Z,2.90
2018-09-10T23:09:48.002Z,2.80
2018-09-10T23:12:00.234Z,2.83
2018-09-10T23:14:12.394Z,2.93
2018-09-10T23:16:24.669Z,3.50
2018-09-10T23:18:36.887Z,2.93
2018-09-10T23:20:49.109Z,3.47
2018-09-10T23:23:01.339Z,3.10
2018-09-10T23:25:13.533Z,3.07
2018-09-10T23:27:25.753Z,3.13
2018-09-10T23:29:37.951Z,3.10
2018-09-10T23:31:50.132Z,2.80
2018-09-10T23:34:02.310Z,3.57
2018-09-10T23:36:14.506Z,3.10
2018-09-10T23:38:26.723Z,2.60
2018-09-10T23:40:38.893Z,3.07
2018-09-10T23:42:51.091Z,2.70
2018-09-10T23:45:03.277Z,3.10
2018-09-10T23:47:15.486Z,3.10
2018-09-10T23:49:27.679Z,3.13
2018-09-10T23:51:39.963Z,3.63
2018-09-10T23:53:52.175Z,3.20
2018-09-10T23:56:04.396Z,3.27
2018-09-10T23:58:16.639Z,3.30
